Time;durP1;ratioP1;P1;durP2;ratioP2;P2;SDS_P1;SDS_P2;PMS_P1;PMS_P2;Temp;Humidity;BMP_temperature;BMP_pressure;BME280_temperature;BME280_humidity;BME280_pressure;Samples;Min_cycle;Max_cycle;Signal;HPM_P1;HPM_P2
2023/09/04 00:00:27;;;;;;;3.43;3.13;;;;;;;;;;5092244;28;20207;-73
2023/09/04 00:03:31;;;;;;;3.40;3.10;;;;;;;;;;5093090;28;20210;-73
2023/09/04 00:06:35;;;;;;;5.47;3.70;;;;;;;;;;5092280;28;20170;-73
2023/09/04 00:09:40;;;;;;;4.00;3.60;;;;;;;;;;5092898;28;20194;-74
2023/09/04 00:12:44;;;;;;;3.43;3.13;;;;;;;;;;5092897;28;20214;-74
2023/09/04 00:15:48;;;;;;;3.70;3.13;;;;;;;;;;5092979;28;20183;-73
2023/09/04 00:18:52;;;;;;;3.60;3.30;;;;;;;;;;5092908;28;20518;-73
2023/09/04 00:21:56;;;;;;;4.63;3.50;;;;;;;;;;5092918;28;20183;-74
2023/09/04 00:25:00;;;;;;;3.87;3.40;;;;;;;;;;5092929;28;20186;-73
2023/09/04 00:28:05;;;;;;;3.73;3.37;;;;;;;;;;5092845;28;20174;-73
2023/09/04 00:31:09;;;;;;;3.27;2.97;;;;;;;;;;5092107;28;20518;-73
2023/09/04 00:34:13;;;;;;;4.80;3.37;;;;;;;;;;5092105;28;20210;-73
2023/09/04 00:37:17;;;;;;;3.47;3.10;;;;;;;;;;5091963;28;20175;-73
2023/09/04 00:40:21;;;;;;;3.80;3.30;;;;;;;;;;5091946;28;20199;-73
2023/09/04 00:43:35;;;;;;;3.83;3.43;;;;;;;;;;5080152;28;20210;-73
2023/09/04 00:46:42;;;;;;;4.00;3.60;;;;;;;;;;5091893;28;20175;-73
2023/09/04 00:49:47;;;;;;;4.60;3.40;;;;;;;;;;5092651;28;20187;-74
2023/09/04 00:52:56;;;;;;;3.80;3.30;;;;;;;;;;5091744;28;20210;-73
2023/09/04 00:56:02;;;;;;;4.00;3.60;;;;;;;;;;5091774;28;20175;-73
2023/09/04 00:59:05;;;;;;;5.87;3.40;;;;;;;;;;5092541;28;20183;-73
2023/09/04 01:02:11;;;;;;;4.93;3.57;;;;;;;;;;5096094;28;20179;-73
2023/09/04 01:05:16;;;;;;;3.90;3.40;;;;;;;;;;5095300;28;20175;-73
2023/09/04 01:08:21;;;;;;;5.33;3.90;;;;;;;;;;5095364;28;20175;-73
2023/09/04 01:12:23;;;;;;;6.20;3.73;;;;;;;;;;5095115;28;20194;-73
2023/09/04 01:15:29;;;;;;;4.50;4.07;;;;;;;;;;4991373;28;20177;-73
2023/09/04 01:18:34;;;;;;;6.83;3.63;;;;;;;;;;5024233;28;20553;-73
2023/09/04 01:21:39;;;;;;;6.10;4.73;;;;;;;;;;5095057;28;20175;-74
2023/09/04 01:24:44;;;;;;;6.00;3.30;;;;;;;;;;5094919;28;20170;-74
2023/09/04 01:28:02;;;;;;;4.30;3.50;;;;;;;;;;5083278;28;20179;-73
2023/09/04 01:31:34;;;;;;;3.90;3.50;;;;;;;;;;5074747;28;20520;-72
2023/09/04 01:34:42;;;;;;;4.80;4.10;;;;;;;;;;5090054;28;20191;-72
2023/09/04 01:37:47;;;;;;;10.03;3.90;;;;;;;;;;5095254;28;20182;-73
2023/09/04 01:40:51;;;;;;;5.60;3.97;;;;;;;;;;5094578;28;20202;-72
2023/09/04 01:43:55;;;;;;;5.93;4.07;;;;;;;;;;5095463;28;20206;-73
2023/09/04 01:47:00;;;;;;;4.63;4.20;;;;;;;;;;5094213;28;20661;-73
2023/09/04 01:50:04;;;;;;;6.70;4.30;;;;;;;;;;5094648;28;20171;-73
2023/09/04 01:53:09;;;;;;;6.77;4.47;;;;;;;;;;5094567;28;20218;-72
2023/09/04 01:56:13;;;;;;;4.60;3.87;;;;;;;;;;5094457;28;20178;-73
2023/09/04 01:59:18;;;;;;;4.70;4.00;;;;;;;;;;5094352;28;20196;-73
2023/09/04 02:02:21;;;;;;;3.90;3.50;;;;;;;;;;5082582;28;20210;-73
2023/09/04 02:05:26;;;;;;;4.67;4.00;;;;;;;;;;5073937;28;20199;-73
2023/09/04 02:08:30;;;;;;;3.90;3.60;;;;;;;;;;5074654;28;20661;-73
2023/09/04 02:11:35;;;;;;;4.37;3.80;;;;;;;;;;5073229;28;20539;-73
2023/09/04 02:14:39;;;;;;;4.10;3.70;;;;;;;;;;5074594;28;20195;-73
2023/09/04 02:17:43;;;;;;;5.17;4.07;;;;;;;;;;5073826;28;20191;-73
2023/09/04 02:20:48;;;;;;;4.93;4.13;;;;;;;;;;5074384;28;20693;-73
2023/09/04 02:23:52;;;;;;;4.43;4.03;;;;;;;;;;5073509;28;20211;-73
2023/09/04 02:26:56;;;;;;;5.40;4.53;;;;;;;;;;5074584;28;20187;-73
2023/09/04 02:30:03;;;;;;;4.60;4.10;;;;;;;;;;5073358;28;20171;-73
2023/09/04 02:33:07;;;;;;;4.50;4.00;;;;;;;;;;5075334;28;20689;-73
2023/09/04 02:36:12;;;;;;;5.90;4.50;;;;;;;;;;5093570;28;20621;-73
2023/09/04 02:39:16;;;;;;;5.80;4.30;;;;;;;;;;5093516;28;20190;-73
2023/09/04 02:42:20;;;;;;;4.80;4.30;;;;;;;;;;5094236;28;20202;-72
2023/09/04 02:45:25;;;;;;;8.30;4.50;;;;;;;;;;5094193;28;20178;-73
2023/09/04 02:48:29;;;;;;;4.87;4.37;;;;;;;;;;5094090;28;20194;-73
2023/09/04 02:51:33;;;;;;;6.20;4.60;;;;;;;;;;5081639;28;20190;-73
2023/09/04 02:54:37;;;;;;;4.63;4.03;;;;;;;;;;5093365;28;20183;-72
2023/09/04 02:57:41;;;;;;;4.93;4.37;;;;;;;;;;5093187;28;20178;-73
2023/09/04 03:00:45;;;;;;;6.77;4.37;;;;;;;;;;5093105;28;20203;-73
2023/09/04 03:03:49;;;;;;;6.00;4.43;;;;;;;;;;5092778;28;20230;-73
2023/09/04 03:06:53;;;;;;;6.07;5.13;;;;;;;;;;5092980;28;20187;-74
2023/09/04 03:09:59;;;;;;;6.70;5.33;;;;;;;;;;5092899;28;20202;-73
2023/09/04 03:13:03;;;;;;;8.60;5.73;;;;;;;;;;5092893;28;20210;-73
2023/09/04 03:16:07;;;;;;;9.50;4.90;;;;;;;;;;5078615;28;20662;-73
2023/09/04 03:19:11;;;;;;;5.90;4.90;;;;;;;;;;5072637;28;20171;-74
2023/09/04 03:22:15;;;;;;;5.57;4.93;;;;;;;;;;5072393;28;20215;-73
2023/09/04 03:25:20;;;;;;;7.00;5.20;;;;;;;;;;5072439;28;20179;-73
2023/09/04 03:28:24;;;;;;;6.50;5.50;;;;;;;;;;5073182;28;20179;-73
2023/09/04 03:31:28;;;;;;;6.20;5.10;;;;;;;;;;5072414;28;20636;-73
2023/09/04 03:34:32;;;;;;;6.17;5.10;;;;;;;;;;5072367;28;20195;-73
2023/09/04 03:37:36;;;;;;;8.60;4.97;;;;;;;;;;5060800;28;20199;-73
2023/09/04 03:40:41;;;;;;;6.67;5.00;;;;;;;;;;5072341;28;20671;-73
2023/09/04 03:43:45;;;;;;;5.73;4.83;;;;;;;;;;5095610;28;20215;-73
2023/09/04 03:46:49;;;;;;;6.20;4.97;;;;;;;;;;5072318;28;20184;-73
2023/09/04 03:49:53;;;;;;;6.67;5.33;;;;;;;;;;5072225;28;20175;-73
2023/09/04 03:52:57;;;;;;;12.10;5.80;;;;;;;;;;5072880;28;20214;-73
2023/09/04 03:56:05;;;;;;;10.77;5.40;;;;;;;;;;5072142;28;20175;-73
2023/09/04 03:59:09;;;;;;;18.50;5.80;;;;;;;;;;5072992;28;20512;-73
2023/09/04 04:02:14;;;;;;;6.90;5.53;;;;;;;;;;5095285;28;20535;-73
2023/09/04 04:05:20;;;;;;;5.97;5.37;;;;;;;;;;5073014;28;20630;-73
2023/09/04 04:08:24;;;;;;;6.97;5.43;;;;;;;;;;5072048;28;20191;-73
2023/09/04 04:11:28;;;;;;;6.73;6.00;;;;;;;;;;5072711;28;20203;-73
2023/09/04 04:14:32;;;;;;;5.63;5.13;;;;;;;;;;5072017;28;20528;-73
2023/09/04 04:17:37;;;;;;;6.50;5.53;;;;;;;;;;5072022;28;20520;-73
2023/09/04 04:20:41;;;;;;;7.00;5.70;;;;;;;;;;5071934;28;20203;-73
2023/09/04 04:23:45;;;;;;;7.37;5.80;;;;;;;;;;5071832;28;20215;-73
2023/09/04 04:26:49;;;;;;;6.43;5.20;;;;;;;;;;5072620;28;20179;-73
2023/09/04 04:29:55;;;;;;;7.73;6.00;;;;;;;;;;5071800;28;20199;-73
2023/09/04 04:33:02;;;;;;;7.07;6.30;;;;;;;;;;5071680;28;20207;-73
2023/09/04 04:36:06;;;;;;;6.13;5.50;;;;;;;;;;5098343;28;20187;-73
2023/09/04 04:39:11;;;;;;;7.40;6.23;;;;;;;;;;5076306;28;20188;-73
2023/09/04 04:42:15;;;;;;;7.27;5.60;;;;;;;;;;5076094;28;20215;-73
2023/09/04 04:45:20;;;;;;;8.20;6.43;;;;;;;;;;5075403;28;20176;-73
2023/09/04 04:48:24;;;;;;;8.80;6.27;;;;;;;;;;5075373;28;20176;-73
2023/09/04 04:51:28;;;;;;;7.90;6.20;;;;;;;;;;5075289;28;20195;-73
2023/09/04 04:54:32;;;;;;;8.70;6.90;;;;;;;;;;5075992;28;20195;-73
2023/09/04 04:57:36;;;;;;;10.23;6.63;;;;;;;;;;5075297;28;20195;-73
2023/09/04 05:00:40;;;;;;;7.57;6.30;;;;;;;;;;5098596;28;20229;-73
2023/09/04 05:03:45;;;;;;;9.77;6.30;;;;;;;;;;5075811;28;20563;-73
2023/09/04 05:06:49;;;;;;;11.40;6.60;;;;;;;;;;5075032;28;20175;-73
2023/09/04 05:09:55;;;;;;;9.57;7.03;;;;;;;;;;5074865;28;20199;-73
2023/09/04 05:12:59;;;;;;;12.53;6.63;;;;;;;;;;5074874;28;20215;-73
2023/09/04 05:16:04;;;;;;;13.57;7.20;;;;;;;;;;5074859;28;20199;-73
2023/09/04 05:19:12;;;;;;;10.30;6.33;;;;;;;;;;5074971;28;20175;-73
2023/09/04 05:22:16;;;;;;;20.60;7.60;;;;;;;;;;5074701;28;20686;-73
2023/09/04 05:25:21;;;;;;;17.17;6.70;;;;;;;;;;5074710;28;20171;-73
2023/09/04 05:28:25;;;;;;;10.10;6.90;;;;;;;;;;5075473;28;20171;-72
2023/09/04 05:31:30;;;;;;;18.50;8.43;;;;;;;;;;5075369;28;20179;-72
2023/09/04 05:34:39;;;;;;;11.43;7.23;;;;;;;;;;5075359;28;20175;-72
2023/09/04 05:37:43;;;;;;;15.93;8.67;;;;;;;;;;5075229;28;20623;-72
2023/09/04 05:40:59;;;;;;;48.80;24.93;;;;;;;;;;5075115;28;20215;-72
2023/09/04 05:44:04;;;;;;;52.67;27.80;;;;;;;;;;5075058;28;20218;-73
2023/09/04 05:47:08;;;;;;;12.23;9.30;;;;;;;;;;5074023;28;20183;-72
2023/09/04 05:50:13;;;;;;;18.57;12.37;;;;;;;;;;5075067;28;20179;-72
2023/09/04 05:53:18;;;;;;;15.60;9.57;;;;;;;;;;5074861;28;20214;-73
2023/09/04 05:56:23;;;;;;;11.03;8.07;;;;;;;;;;5074869;28;20298;-73
2023/09/04 05:59:27;;;;;;;13.20;8.50;;;;;;;;;;5074899;28;20179;-73
2023/09/04 06:02:31;;;;;;;11.93;8.70;;;;;;;;;;5074601;28;20223;-73
2023/09/04 06:05:35;;;;;;;14.83;8.83;;;;;;;;;;5073930;28;20196;-73
2023/09/04 06:08:39;;;;;;;13.57;8.67;;;;;;;;;;5074696;28;20191;-73
2023/09/04 06:11:43;;;;;;;11.07;8.60;;;;;;;;;;5074569;28;20172;-73
2023/09/04 06:14:47;;;;;;;10.53;8.87;;;;;;;;;;5073886;28;20175;-73
2023/09/04 06:17:52;;;;;;;10.77;9.67;;;;;;;;;;5074412;28;20183;-73
2023/09/04 06:20:57;;;;;;;10.60;8.83;;;;;;;;;;5074343;28;20207;-73
2023/09/04 06:24:01;;;;;;;14.37;10.47;;;;;;;;;;5074351;28;20215;-73
2023/09/04 06:27:05;;;;;;;11.43;9.17;;;;;;;;;;5074248;28;20198;-73
2023/09/04 06:30:09;;;;;;;12.23;9.10;;;;;;;;;;5074272;28;20183;-72
2023/09/04 06:33:14;;;;;;;10.83;9.07;;;;;;;;;;5074141;28;20207;-73
2023/09/04 06:36:17;;;;;;;13.77;9.40;;;;;;;;;;5074164;28;20176;-72
2023/09/04 06:39:22;;;;;;;11.77;8.83;;;;;;;;;;5074002;28;20539;-73
2023/09/04 06:42:26;;;;;;;17.17;9.43;;;;;;;;;;5073946;28;20227;-73
2023/09/04 06:45:30;;;;;;;17.23;10.50;;;;;;;;;;5074001;28;20175;-73
2023/09/04 06:48:34;;;;;;;13.23;9.07;;;;;;;;;;5073856;28;20187;-72
2023/09/04 06:51:39;;;;;;;10.50;9.07;;;;;;;;;;5073898;28;20171;-73
2023/09/04 06:54:43;;;;;;;8.17;7.37;;;;;;;;;;5073771;28;20171;-73
2023/09/04 06:57:47;;;;;;;7.47;6.43;;;;;;;;;;5073454;28;20179;-73
2023/09/04 07:00:52;;;;;;;10.90;6.00;;;;;;;;;;5073662;28;20179;-73
2023/09/04 07:03:56;;;;;;;8.23;5.73;;;;;;;;;;5073513;28;20214;-73
2023/09/04 07:07:00;;;;;;;19.10;6.87;;;;;;;;;;5073826;28;20187;-73
2023/09/04 07:10:06;;;;;;;6.30;4.77;;;;;;;;;;5073362;28;20206;-73
2023/09/04 07:13:10;;;;;;;5.53;4.93;;;;;;;;;;5073542;28;20215;-73
2023/09/04 07:16:14;;;;;;;8.23;5.13;;;;;;;;;;5073495;28;20180;-73
2023/09/04 07:19:18;;;;;;;5.70;5.17;;;;;;;;;;5073637;28;20171;-73
2023/09/04 07:22:24;;;;;;;9.90;5.07;;;;;;;;;;5073173;28;20571;-73
2023/09/04 07:25:28;;;;;;;6.53;4.87;;;;;;;;;;5073274;28;20639;-73
2023/09/04 07:28:32;;;;;;;6.47;4.93;;;;;;;;;;5073586;28;20512;-73
2023/09/04 07:31:36;;;;;;;5.10;4.50;;;;;;;;;;5073504;28;20631;-73
2023/09/04 07:34:41;;;;;;;5.57;4.67;;;;;;;;;;5073491;28;20184;-73
2023/09/04 07:37:45;;;;;;;6.63;5.30;;;;;;;;;;5073505;28;20179;-73
2023/09/04 07:40:59;;;;;;;14.00;5.27;;;;;;;;;;5073263;28;20634;-74
2023/09/04 07:44:03;;;;;;;9.30;4.30;;;;;;;;;;5073335;28;20215;-73
2023/09/04 07:47:07;;;;;;;5.23;4.73;;;;;;;;;;5073192;28;20520;-73
2023/09/04 07:50:11;;;;;;;5.33;4.83;;;;;;;;;;5073023;28;20194;-74
2023/09/04 07:53:15;;;;;;;4.97;4.47;;;;;;;;;;5072975;28;20211;-74
2023/09/04 07:56:20;;;;;;;16.53;5.30;;;;;;;;;;5072140;28;20187;-74
2023/09/04 07:59:25;;;;;;;6.47;4.87;;;;;;;;;;5073194;28;20179;-74
2023/09/04 08:02:28;;;;;;;8.70;4.53;;;;;;;;;;5072965;28;20567;-74
2023/09/04 08:05:33;;;;;;;6.90;4.57;;;;;;;;;;5072897;28;20188;-74
2023/09/04 08:08:38;;;;;;;5.70;4.47;;;;;;;;;;5072255;28;20180;-74
2023/09/04 08:11:42;;;;;;;4.53;4.13;;;;;;;;;;5082936;28;20184;-74
2023/09/04 08:14:47;;;;;;;11.00;4.63;;;;;;;;;;5077204;28;20191;-74
2023/09/04 08:17:51;;;;;;;4.90;4.30;;;;;;;;;;5076767;28;20195;-74
2023/09/04 08:20:55;;;;;;;8.33;4.73;;;;;;;;;;5076809;28;20175;-73
2023/09/04 08:24:00;;;;;;;4.40;3.97;;;;;;;;;;5076933;28;20215;-74
2023/09/04 08:27:03;;;;;;;26.13;5.73;;;;;;;;;;5076915;28;20187;-74
2023/09/04 08:30:08;;;;;;;5.17;3.70;;;;;;;;;;5076572;28;20171;-74
2023/09/04 08:33:12;;;;;;;7.17;4.03;;;;;;;;;;5076705;28;20203;-74
2023/09/04 08:36:16;;;;;;;4.10;3.70;;;;;;;;;;5076704;28;20177;-74
2023/09/04 08:39:20;;;;;;;4.83;3.47;;;;;;;;;;5076618;28;20176;-74
2023/09/04 08:42:27;;;;;;;4.67;3.73;;;;;;;;;;5076429;28;20226;-74
2023/09/04 08:45:32;;;;;;;4.70;3.40;;;;;;;;;;5076529;28;20518;-74
2023/09/04 08:48:39;;;;;;;10.63;3.80;;;;;;;;;;5076216;28;20639;-74
2023/09/04 08:51:44;;;;;;;5.03;3.00;;;;;;;;;;5076123;28;20171;-74
2023/09/04 08:54:50;;;;;;;6.50;3.17;;;;;;;;;;5076222;28;20514;-74
2023/09/04 08:57:54;;;;;;;4.90;3.30;;;;;;;;;;5076018;28;20178;-74
2023/09/04 09:00:58;;;;;;;3.17;2.65;;;;;;;;;;5076064;28;20184;-74
2023/09/04 09:04:04;;;;;;;3.67;3.30;;;;;;;;;;5075811;28;20221;-74
2023/09/04 09:07:10;;;;;;;3.47;3.17;;;;;;;;;;5076074;28;20198;-74
2023/09/04 09:10:19;;;;;;;4.25;3.25;;;;;;;;;;5075722;28;20202;-74
2023/09/04 09:13:23;;;;;;;3.53;2.83;;;;;;;;;;5075617;28;20218;-74
2023/09/04 09:16:26;;;;;;;3.80;3.22;;;;;;;;;;5075786;28;20180;-74
2023/09/04 09:19:33;;;;;;;4.90;3.20;;;;;;;;;;5075810;28;20186;-74
2023/09/04 09:22:37;;;;;;;4.32;2.80;;;;;;;;;;5075389;28;20574;-74
2023/09/04 09:25:41;;;;;;;3.67;2.90;;;;;;;;;;5075423;28;20187;-74
2023/09/04 09:28:45;;;;;;;6.47;3.33;;;;;;;;;;5075518;28;20180;-74
2023/09/04 09:31:52;;;;;;;4.82;2.72;;;;;;;;;;5075643;28;20175;-74
2023/09/04 09:34:58;;;;;;;3.72;3.00;;;;;;;;;;5075596;28;20178;-74
2023/09/04 09:38:02;;;;;;;3.67;3.35;;;;;;;;;;5075320;28;20194;-74
2023/09/04 09:41:12;;;;;;;4.32;2.70;;;;;;;;;;5075198;28;20178;-74
2023/09/04 09:44:17;;;;;;;4.82;2.83;;;;;;;;;;5097547;28;20215;-74
2023/09/04 09:47:21;;;;;;;4.78;2.65;;;;;;;;;;5075246;28;20642;-74
2023/09/04 09:50:25;;;;;;;6.28;2.92;;;;;;;;;;5075277;28;20180;-74
2023/09/04 09:53:42;;;;;;;2.90;2.55;;;;;;;;;;5075126;28;20207;-74
2023/09/04 09:56:49;;;;;;;3.60;2.92;;;;;;;;;;5075381;28;20636;-75
2023/09/04 09:59:56;;;;;;;4.43;3.00;;;;;;;;;;5074905;28;20205;-74
2023/09/04 10:03:01;;;;;;;19.05;3.95;;;;;;;;;;5074851;28;20227;-74
2023/09/04 10:06:07;;;;;;;5.95;2.85;;;;;;;;;;5097367;28;20172;-74
2023/09/04 10:09:13;;;;;;;106.07;8.02;;;;;;;;;;5075012;28;20179;-74
2023/09/04 10:12:33;;;;;;;4.30;2.50;;;;;;;;;;5074568;28;20218;-74
2023/09/04 10:15:40;;;;;;;2.72;2.50;;;;;;;;;;5074913;28;20552;-74
2023/09/04 10:18:49;;;;;;;4.68;2.60;;;;;;;;;;5074693;28;20650;-74
2023/09/04 10:22:01;;;;;;;7.13;2.67;;;;;;;;;;5074564;28;20176;-74
2023/09/04 10:25:12;;;;;;;14.52;2.60;;;;;;;;;;5074604;28;20180;-74
2023/09/04 10:28:36;;;;;;;5.82;2.78;;;;;;;;;;5074433;28;20176;-74
2023/09/04 10:31:42;;;;;;;4.53;2.65;;;;;;;;;;5074580;28;20180;-74
2023/09/04 10:34:46;;;;;;;2.58;2.20;;;;;;;;;;5074549;28;20199;-74
2023/09/04 10:37:50;;;;;;;12.90;2.72;;;;;;;;;;5074440;28;20199;-74
2023/09/04 10:40:57;;;;;;;6.63;2.67;;;;;;;;;;5074096;28;20171;-74
2023/09/04 10:44:01;;;;;;;21.70;3.00;;;;;;;;;;5074341;28;20220;-75
2023/09/04 10:47:05;;;;;;;6.35;2.55;;;;;;;;;;5073797;28;20180;-74
2023/09/04 10:50:35;;;;;;;5.00;2.10;;;;;;;;;;5074238;28;20176;-74
2023/09/04 10:53:39;;;;;;;14.13;2.80;;;;;;;;;;5073829;28;20219;-75
2023/09/04 10:56:58;;;;;;;3.95;2.10;;;;;;;;;;5073891;28;20176;-74
2023/09/04 11:00:03;;;;;;;3.78;2.22;;;;;;;;;;5073987;28;20188;-74
2023/09/04 11:03:22;;;;;;;3.22;2.67;;;;;;;;;;5073589;28;20556;-74
2023/09/04 11:06:26;;;;;;;28.08;4.00;;;;;;;;;;5073825;28;20627;-75
2023/09/04 11:09:33;;;;;;;4.30;2.35;;;;;;;;;;5073435;28;20195;-74
2023/09/04 11:12:37;;;;;;;5.93;2.13;;;;;;;;;;5073798;28;20215;-74
2023/09/04 11:15:41;;;;;;;4.28;2.63;;;;;;;;;;5073022;28;20172;-74
2023/09/04 11:18:46;;;;;;;12.23;2.97;;;;;;;;;;5073004;28;20171;-74
2023/09/04 11:21:50;;;;;;;4.90;2.50;;;;;;;;;;5073351;28;20191;-74
2023/09/04 11:24:54;;;;;;;2.63;2.30;;;;;;;;;;5072582;28;20172;-75
2023/09/04 11:27:59;;;;;;;4.10;2.25;;;;;;;;;;5073583;28;20184;-76
2023/09/04 11:31:03;;;;;;;2.60;2.40;;;;;;;;;;5073308;28;20176;-75
2023/09/04 11:34:07;;;;;;;3.28;2.55;;;;;;;;;;5073487;28;20207;-75
2023/09/04 11:37:12;;;;;;;3.17;2.25;;;;;;;;;;5073301;28;20172;-75
2023/09/04 11:40:16;;;;;;;15.88;3.05;;;;;;;;;;5073408;28;20176;-75
2023/09/04 11:43:23;;;;;;;6.32;2.45;;;;;;;;;;5073347;28;20227;-75
2023/09/04 11:46:27;;;;;;;5.55;2.50;;;;;;;;;;5073314;28;20179;-75
2023/09/04 11:49:37;;;;;;;5.18;2.58;;;;;;;;;;5073379;28;20175;-74
2023/09/04 11:52:40;;;;;;;5.60;2.40;;;;;;;;;;5073325;28;20241;-74
2023/09/04 11:55:50;;;;;;;25.83;4.05;;;;;;;;;;5073101;28;20172;-75
2023/09/04 11:58:54;;;;;;;3.67;2.70;;;;;;;;;;5073341;28;20176;-74
2023/09/04 12:01:58;;;;;;;5.47;2.35;;;;;;;;;;5072992;28;20195;-75
2023/09/04 12:05:05;;;;;;;4.28;2.70;;;;;;;;;;5073244;28;20651;-75
2023/09/04 12:08:10;;;;;;;30.27;4.10;;;;;;;;;;5073006;28;20531;-75
2023/09/04 12:11:14;;;;;;;13.38;2.80;;;;;;;;;;5072927;28;20199;-75
2023/09/04 12:14:18;;;;;;;6.72;3.60;;;;;;;;;;5072901;28;20556;-76
2023/09/04 12:17:23;;;;;;;2.88;2.58;;;;;;;;;;5072746;28;20175;-75
2023/09/04 12:20:33;;;;;;;9.20;2.78;;;;;;;;;;5072615;28;20184;-76
2023/09/04 12:23:45;;;;;;;15.88;2.83;;;;;;;;;;5072606;28;20228;-75
2023/09/04 12:26:50;;;;;;;5.50;2.83;;;;;;;;;;5073180;28;20516;-76
2023/09/04 12:29:54;;;;;;;3.42;2.50;;;;;;;;;;5072137;28;20176;-76
2023/09/04 12:32:58;;;;;;;14.77;2.92;;;;;;;;;;5072472;28;20207;-75
2023/09/04 12:36:06;;;;;;;3.80;2.40;;;;;;;;;;5072709;28;20184;-75
2023/09/04 12:39:09;;;;;;;3.67;2.35;;;;;;;;;;5072616;28;20180;-74
2023/09/04 12:42:14;;;;;;;3.28;2.50;;;;;;;;;;5071571;28;20176;-75
2023/09/04 12:45:18;;;;;;;8.50;2.67;;;;;;;;;;5072604;28;20176;-75
2023/09/04 12:48:23;;;;;;;5.40;3.00;;;;;;;;;;5073408;28;20538;-75
2023/09/04 12:51:27;;;;;;;23.55;3.80;;;;;;;;;;5073389;28;20176;-74
2023/09/04 12:54:31;;;;;;;13.95;3.67;;;;;;;;;;5073234;28;20176;-75
2023/09/04 12:57:36;;;;;;;7.97;2.72;;;;;;;;;;5077056;28;20184;-74
2023/09/04 13:00:43;;;;;;;3.63;2.30;;;;;;;;;;5076831;28;20287;-74
2023/09/04 13:03:47;;;;;;;3.95;2.45;;;;;;;;;;5076662;28;20219;-75
2023/09/04 13:06:54;;;;;;;3.30;2.63;;;;;;;;;;5076448;28;20639;-75
2023/09/04 13:10:00;;;;;;;2.45;2.25;;;;;;;;;;5076618;28;20195;-77
2023/09/04 13:13:07;;;;;;;11.73;3.28;;;;;;;;;;5076899;28;20608;-75
2023/09/04 13:16:11;;;;;;;4.40;2.40;;;;;;;;;;5076476;28;20199;-76
2023/09/04 13:19:16;;;;;;;2.53;2.33;;;;;;;;;;5076079;28;20195;-74
2023/09/04 13:22:21;;;;;;;3.92;2.33;;;;;;;;;;5076417;28;20208;-75
2023/09/04 13:25:25;;;;;;;3.20;2.50;;;;;;;;;;5076589;28;20180;-75
2023/09/04 13:28:29;;;;;;;2.60;2.40;;;;;;;;;;5075648;28;20176;-75
2023/09/04 13:31:34;;;;;;;15.68;3.05;;;;;;;;;;5076545;28;20175;-75
2023/09/04 13:34:38;;;;;;;4.00;2.42;;;;;;;;;;5076221;28;20180;-75
2023/09/04 13:37:42;;;;;;;5.00;2.80;;;;;;;;;;5075214;28;20171;-75
2023/09/04 13:40:46;;;;;;;11.57;3.10;;;;;;;;;;5076308;28;20183;-76
2023/09/04 13:43:50;;;;;;;4.88;2.65;;;;;;;;;;5075935;28;20223;-75
2023/09/04 13:46:54;;;;;;;4.57;2.83;;;;;;;;;;5076254;28;20523;-75
2023/09/04 13:49:59;;;;;;;3.40;2.40;;;;;;;;;;5076024;28;20176;-74
2023/09/04 13:53:04;;;;;;;7.05;2.58;;;;;;;;;;5075959;28;20215;-74
2023/09/04 13:56:08;;;;;;;4.82;2.55;;;;;;;;;;5075782;28;20522;-75
2023/09/04 13:59:12;;;;;;;7.03;2.30;;;;;;;;;;5075908;28;20175;-74
2023/09/04 14:02:17;;;;;;;3.42;2.53;;;;;;;;;;5076236;28;20192;-76
2023/09/04 14:05:22;;;;;;;3.33;2.50;;;;;;;;;;5075870;28;20188;-76
2023/09/04 14:08:26;;;;;;;5.22;2.70;;;;;;;;;;5075007;28;20536;-75
2023/09/04 14:11:30;;;;;;;4.22;2.72;;;;;;;;;;5077372;28;20194;-75
2023/09/04 14:14:34;;;;;;;2.65;2.45;;;;;;;;;;5076156;28;20179;-75
2023/09/04 14:17:39;;;;;;;6.28;2.70;;;;;;;;;;5075958;28;20192;-76
2023/09/04 14:20:43;;;;;;;14.55;3.05;;;;;;;;;;5075075;28;20182;-75
2023/09/04 14:23:47;;;;;;;5.22;3.53;;;;;;;;;;5075080;28;20225;-75
2023/09/04 14:26:52;;;;;;;3.55;2.20;;;;;;;;;;5074536;28;20174;-75
2023/09/04 14:29:57;;;;;;;40.58;5.00;;;;;;;;;;5074334;28;20176;-74
2023/09/04 14:33:01;;;;;;;5.50;3.15;;;;;;;;;;5073419;28;20563;-75
2023/09/04 14:36:06;;;;;;;7.05;3.33;;;;;;;;;;5074612;28;20175;-75
2023/09/04 14:39:09;;;;;;;3.97;2.47;;;;;;;;;;5074632;28;20179;-75
2023/09/04 14:42:14;;;;;;;5.90;2.50;;;;;;;;;;5074119;28;20203;-74
2023/09/04 14:45:18;;;;;;;3.08;2.55;;;;;;;;;;5074375;28;20555;-75
2023/09/04 14:48:22;;;;;;;4.05;2.65;;;;;;;;;;5074196;28;20195;-74
2023/09/04 14:51:27;;;;;;;7.43;2.63;;;;;;;;;;5073465;28;20183;-75
2023/09/04 14:54:31;;;;;;;34.85;4.47;;;;;;;;;;5074184;28;20171;-75
2023/09/04 14:57:35;;;;;;;9.43;2.92;;;;;;;;;;5073999;28;20195;-74
2023/09/04 15:00:39;;;;;;;3.92;2.40;;;;;;;;;;5073860;28;20176;-74
2023/09/04 15:03:44;;;;;;;5.88;2.90;;;;;;;;;;5073797;28;20846;-74
2023/09/04 15:06:49;;;;;;;3.58;2.80;;;;;;;;;;5073623;28;20185;-74
2023/09/04 15:09:53;;;;;;;5.13;2.75;;;;;;;;;;5073500;28;20213;-74
2023/09/04 15:12:57;;;;;;;3.10;2.80;;;;;;;;;;5073746;28;20214;-75
2023/09/04 15:16:02;;;;;;;4.32;2.58;;;;;;;;;;5073521;28;20174;-74
2023/09/04 15:19:07;;;;;;;45.38;4.93;;;;;;;;;;5073386;28;20175;-74
2023/09/04 15:22:11;;;;;;;20.25;3.15;;;;;;;;;;5073395;28;20191;-74
2023/09/04 15:25:15;;;;;;;6.35;2.65;;;;;;;;;;5072255;28;20222;-74
2023/09/04 15:28:19;;;;;;;5.50;2.50;;;;;;;;;;5073164;28;20178;-74
2023/09/04 15:31:25;;;;;;;3.53;2.30;;;;;;;;;;5072265;28;20630;-74
2023/09/04 15:34:29;;;;;;;4.03;2.78;;;;;;;;;;5073386;28;20625;-74
2023/09/04 15:37:34;;;;;;;10.07;3.13;;;;;;;;;;5073132;28;20524;-73
2023/09/04 15:40:38;;;;;;;3.15;2.50;;;;;;;;;;5073276;28;20525;-74
2023/09/04 15:43:42;;;;;;;3.80;2.35;;;;;;;;;;5072848;28;20209;-74
2023/09/04 15:46:48;;;;;;;4.18;2.70;;;;;;;;;;5072967;28;20637;-74
2023/09/04 15:49:53;;;;;;;4.85;2.97;;;;;;;;;;5073086;28;20180;-74
2023/09/04 15:52:59;;;;;;;3.97;2.75;;;;;;;;;;5073061;28;20216;-74
2023/09/04 15:56:03;;;;;;;4.10;2.92;;;;;;;;;;5073434;28;20172;-74
2023/09/04 15:59:07;;;;;;;4.23;2.50;;;;;;;;;;5072901;28;20186;-74
2023/09/04 16:02:12;;;;;;;5.87;2.80;;;;;;;;;;5072811;28;20193;-74
2023/09/04 16:05:16;;;;;;;15.00;4.00;;;;;;;;;;5072926;28;20552;-74
2023/09/04 16:08:20;;;;;;;6.30;3.10;;;;;;;;;;5072910;28;20178;-74
2023/09/04 16:11:25;;;;;;;3.23;2.80;;;;;;;;;;5072693;28;20199;-74
2023/09/04 16:14:29;;;;;;;12.27;3.43;;;;;;;;;;5072654;28;20193;-74
2023/09/04 16:17:33;;;;;;;3.93;2.87;;;;;;;;;;5072260;28;20172;-73
2023/09/04 16:20:44;;;;;;;3.17;2.87;;;;;;;;;;5060376;28;20530;-74
2023/09/04 16:23:48;;;;;;;4.23;3.00;;;;;;;;;;5071926;28;20217;-74
2023/09/04 16:26:52;;;;;;;7.63;3.97;;;;;;;;;;5072721;28;20629;-74
2023/09/04 16:29:56;;;;;;;41.10;5.23;;;;;;;;;;5071826;28;20176;-74
2023/09/04 16:33:00;;;;;;;119.20;9.90;;;;;;;;;;5076515;28;20213;-74
2023/09/04 16:36:05;;;;;;;55.13;7.20;;;;;;;;;;5076454;28;20183;-74
2023/09/04 16:39:09;;;;;;;7.53;3.07;;;;;;;;;;5076395;28;20178;-74
2023/09/04 16:42:16;;;;;;;3.73;2.63;;;;;;;;;;5076451;28;20188;-74
2023/09/04 16:45:20;;;;;;;9.50;3.03;;;;;;;;;;5076255;28;20202;-74
2023/09/04 16:48:25;;;;;;;4.23;2.77;;;;;;;;;;5076268;28;20637;-74
2023/09/04 16:51:29;;;;;;;32.20;4.03;;;;;;;;;;5076144;28;20181;-74
2023/09/04 16:54:33;;;;;;;5.17;3.00;;;;;;;;;;5076470;28;20173;-74
2023/09/04 16:57:37;;;;;;;8.87;4.10;;;;;;;;;;5076032;28;20626;-74
2023/09/04 17:00:42;;;;;;;9.87;5.90;;;;;;;;;;5076026;28;20188;-74
2023/09/04 17:03:46;;;;;;;6.30;3.10;;;;;;;;;;5075846;28;20211;-74
2023/09/04 17:06:50;;;;;;;22.70;8.60;;;;;;;;;;5076036;28;20177;-74
2023/09/04 17:09:54;;;;;;;13.17;5.37;;;;;;;;;;5076019;28;20541;-74
2023/09/04 17:12:58;;;;;;;10.40;5.63;;;;;;;;;;5075772;28;20564;-74
2023/09/04 17:16:02;;;;;;;11.17;5.50;;;;;;;;;;5075709;28;20187;-74
2023/09/04 17:19:06;;;;;;;16.27;6.63;;;;;;;;;;5075717;28;20200;-74
2023/09/04 17:22:10;;;;;;;6.83;3.50;;;;;;;;;;5075591;28;20214;-74
2023/09/04 17:25:15;;;;;;;4.73;3.27;;;;;;;;;;5075844;28;20215;-74
2023/09/04 17:28:19;;;;;;;9.53;4.13;;;;;;;;;;5075630;28;20181;-74
2023/09/04 17:31:24;;;;;;;14.87;5.73;;;;;;;;;;5075564;28;20176;-74
2023/09/04 17:34:29;;;;;;;12.13;5.37;;;;;;;;;;5075645;28;20179;-74
2023/09/04 17:37:33;;;;;;;9.83;4.60;;;;;;;;;;5075653;28;20180;-74
2023/09/04 17:40:38;;;;;;;26.27;6.30;;;;;;;;;;5075354;28;20179;-74
2023/09/04 17:43:42;;;;;;;25.20;5.33;;;;;;;;;;5074645;28;20211;-74
2023/09/04 17:46:46;;;;;;;10.03;3.87;;;;;;;;;;5075436;28;20172;-74
2023/09/04 17:49:50;;;;;;;6.80;2.83;;;;;;;;;;5075074;28;20180;-74
2023/09/04 17:52:57;;;;;;;5.63;3.10;;;;;;;;;;5075182;28;20219;-74
2023/09/04 17:56:01;;;;;;;13.93;2.93;;;;;;;;;;5075278;28;20171;-74
2023/09/04 17:59:05;;;;;;;9.23;4.00;;;;;;;;;;5074885;28;20183;-74
2023/09/04 18:02:09;;;;;;;8.50;3.27;;;;;;;;;;5074115;28;20195;-74
2023/09/04 18:05:13;;;;;;;6.60;3.07;;;;;;;;;;5074716;28;20215;-74
2023/09/04 18:08:18;;;;;;;7.00;3.43;;;;;;;;;;5074655;28;20187;-74
2023/09/04 18:11:22;;;;;;;119.83;8.63;;;;;;;;;;5074558;28;20211;-74
2023/09/04 18:14:26;;;;;;;6.60;2.67;;;;;;;;;;5074862;28;20190;-74
2023/09/04 18:17:30;;;;;;;6.73;2.90;;;;;;;;;;5074150;28;20188;-74
2023/09/04 18:20:35;;;;;;;5.33;2.90;;;;;;;;;;5074509;28;20183;-74
2023/09/04 18:23:40;;;;;;;5.27;2.87;;;;;;;;;;5074702;28;20564;-74